Asia, Texas
Current Conditions -  °F | °C
As of 12:53 AM on Wednesday 22 Oct 2014 (Local Time) from KLFK Reporting Station
Haze Haze  
Wind Chill: 17°   Ceiling: Unl
Heat Index: 17°   Visibility: 5mi
Dew Point: 15°   Wind: 0mph
Humidity: 87%   Direction: NA
Pressure: 30.05"   Gusts: NA
Location:  31.024°N, 94.7686°W
Report Text: KLFK 220553Z AUTO 00000KT 5SM BR CLR 17/15 A3005 RMK AO2 SLP174 T01720150 10228 20172 402830117 58001
Loading
Personal Weather Stations






























Interactive Weather Map
Tropical Storm Tracking
New forecast layout! Learn more

10-Day Weather Forecast

Advertisements
Track Severe Weather on mobile